sensor_id;sensor_type;location;lat;lon;timestamp;pressure;altitude;pressure_sealevel;temperature
19061;BMP280;9663;48.996;8.334;2023-07-20T00:01:26;100106.41;;;26.02
19061;BMP280;9663;48.996;8.334;2023-07-20T00:03:52;100103.38;;;25.95
19061;BMP280;9663;48.996;8.334;2023-07-20T00:06:23;100107.44;;;25.87
19061;BMP280;9663;48.996;8.334;2023-07-20T00:08:51;100110.34;;;25.82
19061;BMP280;9663;48.996;8.334;2023-07-20T00:11:17;100115.13;;;25.76
19061;BMP280;9663;48.996;8.334;2023-07-20T00:13:43;100117.31;;;25.70
19061;BMP280;9663;48.996;8.334;2023-07-20T00:16:09;100115.25;;;25.62
19061;BMP280;9663;48.996;8.334;2023-07-20T00:18:34;100115.72;;;25.55
19061;BMP280;9663;48.996;8.334;2023-07-20T00:21:00;100104.91;;;25.48
19061;BMP280;9663;48.996;8.334;2023-07-20T00:23:26;100114.03;;;25.41
19061;BMP280;9663;48.996;8.334;2023-07-20T00:25:52;100117.06;;;25.35
19061;BMP280;9663;48.996;8.334;2023-07-20T00:28:17;100111.53;;;25.28
19061;BMP280;9663;48.996;8.334;2023-07-20T00:30:43;100121.59;;;25.20
19061;BMP280;9663;48.996;8.334;2023-07-20T00:33:11;100124.56;;;25.14
19061;BMP280;9663;48.996;8.334;2023-07-20T00:35:38;100119.91;;;25.06
19061;BMP280;9663;48.996;8.334;2023-07-20T00:38:05;100122.97;;;24.99
19061;BMP280;9663;48.996;8.334;2023-07-20T00:40:38;100118.25;;;24.91
19061;BMP280;9663;48.996;8.334;2023-07-20T00:43:04;100118.63;;;24.86
19061;BMP280;9663;48.996;8.334;2023-07-20T00:45:31;100118.09;;;24.81
19061;BMP280;9663;48.996;8.334;2023-07-20T00:47:58;100114.25;;;24.74
19061;BMP280;9663;48.996;8.334;2023-07-20T00:50:28;100114.63;;;24.68
19061;BMP280;9663;48.996;8.334;2023-07-20T00:52:57;100109.09;;;24.60
19061;BMP280;9663;48.996;8.334;2023-07-20T00:55:24;100116.31;;;24.55
19061;BMP280;9663;48.996;8.334;2023-07-20T00:57:51;100111.53;;;24.49
19061;BMP280;9663;48.996;8.334;2023-07-20T01:00:17;100114.41;;;24.45
19061;BMP280;9663;48.996;8.334;2023-07-20T01:02:43;100117.19;;;24.42
19061;BMP280;9663;48.996;8.334;2023-07-20T01:05:09;100114.06;;;24.37
19061;BMP280;9663;48.996;8.334;2023-07-20T01:08:03;100111.28;;;24.26
19061;BMP280;9663;48.996;8.334;2023-07-20T01:11:07;100113.59;;;24.16
19061;BMP280;9663;48.996;8.334;2023-07-20T01:13:37;100115.69;;;24.24
19061;BMP280;9663;48.996;8.334;2023-07-20T01:16:03;100117.56;;;24.22
19061;BMP280;9663;48.996;8.334;2023-07-20T01:18:29;100119.41;;;24.20
19061;BMP280;9663;48.996;8.334;2023-07-20T01:21:22;100115.00;;;24.08
19061;BMP280;9663;48.996;8.334;2023-07-20T01:24:19;100120.34;;;24.05
19061;BMP280;9663;48.996;8.334;2023-07-20T01:33:07;100116.38;;;24.00
19061;BMP280;9663;48.996;8.334;2023-07-20T01:35:36;100116.47;;;23.98
19061;BMP280;9663;48.996;8.334;2023-07-20T01:38:03;100118.28;;;23.96
19061;BMP280;9663;48.996;8.334;2023-07-20T01:40:29;100120.06;;;23.96
19061;BMP280;9663;48.996;8.334;2023-07-20T01:42:55;100117.56;;;23.94
19061;BMP280;9663;48.996;8.334;2023-07-20T01:45:21;100116.09;;;23.90
19061;BMP280;9663;48.996;8.334;2023-07-20T01:47:46;100116.28;;;23.87
19061;BMP280;9663;48.996;8.334;2023-07-20T01:50:12;100131.34;;;23.81
19061;BMP280;9663;48.996;8.334;2023-07-20T01:52:38;100125.53;;;23.77
19061;BMP280;9663;48.996;8.334;2023-07-20T01:55:04;100125.69;;;23.74
19061;BMP280;9663;48.996;8.334;2023-07-20T01:57:30;100119.88;;;23.71
19061;BMP280;9663;48.996;8.334;2023-07-20T01:59:56;100122.63;;;23.68
19061;BMP280;9663;48.996;8.334;2023-07-20T02:02:26;100127.91;;;23.66
19061;BMP280;9663;48.996;8.334;2023-07-20T02:04:52;100115.97;;;23.64
19061;BMP280;9663;48.996;8.334;2023-07-20T02:07:17;100111.81;;;23.61
19061;BMP280;9663;48.996;8.334;2023-07-20T02:09:43;100117.03;;;23.60
19061;BMP280;9663;48.996;8.334;2023-07-20T02:12:09;100115.31;;;23.60
19061;BMP280;9663;48.996;8.334;2023-07-20T02:14:35;100111.03;;;23.59
19061;BMP280;9663;48.996;8.334;2023-07-20T02:17:00;100115.47;;;23.58
19061;BMP280;9663;48.996;8.334;2023-07-20T02:19:27;100112.88;;;23.58
19061;BMP280;9663;48.996;8.334;2023-07-20T02:21:52;100117.25;;;23.57
19061;BMP280;9663;48.996;8.334;2023-07-20T02:24:18;100112.16;;;23.56
19061;BMP280;9663;48.996;8.334;2023-07-20T02:26:44;100108.78;;;23.54
19061;BMP280;9663;48.996;8.334;2023-07-20T02:29:10;100109.75;;;23.53
19061;BMP280;9663;48.996;8.334;2023-07-20T02:31:40;100109.75;;;23.53
19061;BMP280;9663;48.996;8.334;2023-07-20T02:34:06;100109.91;;;23.50
19061;BMP280;9663;48.996;8.334;2023-07-20T02:36:32;100112.50;;;23.50
19061;BMP280;9663;48.996;8.334;2023-07-20T02:38:58;100111.75;;;23.48
19061;BMP280;9663;48.996;8.334;2023-07-20T02:41:24;100111.94;;;23.45
19061;BMP280;9663;48.996;8.334;2023-07-20T02:43:50;100112.97;;;23.42
19061;BMP280;9663;48.996;8.334;2023-07-20T02:46:16;100120.03;;;23.39
19061;BMP280;9663;48.996;8.334;2023-07-20T02:48:41;100120.34;;;23.34
19061;BMP280;9663;48.996;8.334;2023-07-20T02:51:07;100115.34;;;23.31
19061;BMP280;9663;48.996;8.334;2023-07-20T02:53:33;100121.59;;;23.27
19061;BMP280;9663;48.996;8.334;2023-07-20T02:55:59;100124.28;;;23.26
19061;BMP280;9663;48.996;8.334;2023-07-20T02:58:24;100118.53;;;23.21
19061;BMP280;9663;48.996;8.334;2023-07-20T03:00:50;100122.94;;;23.19
19061;BMP280;9663;48.996;8.334;2023-07-20T03:03:16;100120.66;;;23.15
19061;BMP280;9663;48.996;8.334;2023-07-20T03:05:42;100127.63;;;23.13
19061;BMP280;9663;48.996;8.334;2023-07-20T03:08:08;100120.97;;;23.09
19061;BMP280;9663;48.996;8.334;2023-07-20T03:10:39;100131.56;;;23.04
19061;BMP280;9663;48.996;8.334;2023-07-20T03:13:06;100125.75;;;23.01
19061;BMP280;9663;48.996;8.334;2023-07-20T03:15:32;100126.84;;;22.97
19061;BMP280;9663;48.996;8.334;2023-07-20T03:17:58;100130.59;;;22.91
19061;BMP280;9663;48.996;8.334;2023-07-20T03:20:24;100136.91;;;22.86
19061;BMP280;9663;48.996;8.334;2023-07-20T03:22:50;100143.28;;;22.80
19061;BMP280;9663;48.996;8.334;2023-07-20T03:25:16;100140.28;;;22.73
19061;BMP280;9663;48.996;8.334;2023-07-20T03:27:43;100139.84;;;22.65
19061;BMP280;9663;48.996;8.334;2023-07-20T03:30:09;100142.88;;;22.57
19061;BMP280;9663;48.996;8.334;2023-07-20T03:32:35;100135.59;;;22.48
19061;BMP280;9663;48.996;8.334;2023-07-20T03:35:01;100138.63;;;22.41
19061;BMP280;9663;48.996;8.334;2023-07-20T03:37:27;100134.59;;;22.35
19061;BMP280;9663;48.996;8.334;2023-07-20T03:39:53;100144.25;;;22.32
19061;BMP280;9663;48.996;8.334;2023-07-20T03:42:19;100142.75;;;22.28
19061;BMP280;9663;48.996;8.334;2023-07-20T03:44:44;100139.44;;;22.26
19061;BMP280;9663;48.996;8.334;2023-07-20T03:47:10;100144.59;;;22.26
19061;BMP280;9663;48.996;8.334;2023-07-20T03:49:36;100140.34;;;22.25
19061;BMP280;9663;48.996;8.334;2023-07-20T03:52:02;100138.50;;;22.27
19061;BMP280;9663;48.996;8.334;2023-07-20T03:54:30;100139.34;;;22.28
19061;BMP280;9663;48.996;8.334;2023-07-20T03:56:56;100142.75;;;22.28
19061;BMP280;9663;48.996;8.334;2023-07-20T03:59:22;100147.00;;;22.29
19061;BMP280;9663;48.996;8.334;2023-07-20T04:01:48;100147.94;;;22.28
19061;BMP280;9663;48.996;8.334;2023-07-20T04:04:15;100151.34;;;22.29
19061;BMP280;9663;48.996;8.334;2023-07-20T04:06:41;100155.69;;;22.28
19061;BMP280;9663;48.996;8.334;2023-07-20T04:09:11;100155.69;;;22.28
19061;BMP280;9663;48.996;8.334;2023-07-20T04:11:39;100153.16;;;22.27
19061;BMP280;9663;48.996;8.334;2023-07-20T04:14:06;100155.84;;;22.25
19061;BMP280;9663;48.996;8.334;2023-07-20T04:16:31;100151.56;;;22.24
19061;BMP280;9663;48.996;8.334;2023-07-20T04:18:58;100153.25;;;22.25
19061;BMP280;9663;48.996;8.334;2023-07-20T04:21:27;100151.69;;;22.23
19061;BMP280;9663;48.996;8.334;2023-07-20T04:23:52;100160.31;;;22.22
19061;BMP280;9663;48.996;8.334;2023-07-20T04:26:18;100157.06;;;22.18
19061;BMP280;9663;48.996;8.334;2023-07-20T04:28:44;100150.16;;;22.19
19061;BMP280;9663;48.996;8.334;2023-07-20T04:31:14;100151.84;;;22.20
19061;BMP280;9663;48.996;8.334;2023-07-20T04:33:40;100150.06;;;22.20
19061;BMP280;9663;48.996;8.334;2023-07-20T04:36:06;100153.41;;;22.22
19061;BMP280;9663;48.996;8.334;2023-07-20T04:38:33;100155.84;;;22.25
19061;BMP280;9663;48.996;8.334;2023-07-20T04:40:59;100156.72;;;22.24
19061;BMP280;9663;48.996;8.334;2023-07-20T04:43:25;100161.81;;;22.26
19061;BMP280;9663;48.996;8.334;2023-07-20T04:45:51;100162.59;;;22.28
19061;BMP280;9663;48.996;8.334;2023-07-20T04:48:17;100159.09;;;22.29
19061;BMP280;9663;48.996;8.334;2023-07-20T04:50:45;100159.91;;;22.29
19061;BMP280;9663;48.996;8.334;2023-07-20T04:53:14;100164.25;;;22.29
19061;BMP280;9663;48.996;8.334;2023-07-20T04:55:40;100161.81;;;22.26
19061;BMP280;9663;48.996;8.334;2023-07-20T04:58:12;100162.84;;;22.23
19061;BMP280;9663;48.996;8.334;2023-07-20T05:00:38;100160.31;;;22.22
19061;BMP280;9663;48.996;8.334;2023-07-20T05:03:04;100157.75;;;22.22
19061;BMP280;9663;48.996;8.334;2023-07-20T05:05:31;100161.81;;;22.26
19061;BMP280;9663;48.996;8.334;2023-07-20T05:07:57;100160.69;;;22.31
19061;BMP280;9663;48.996;8.334;2023-07-20T05:10:24;100158.63;;;22.37
19061;BMP280;9663;48.996;8.334;2023-07-20T05:12:49;100157.28;;;22.46
19061;BMP280;9663;48.996;8.334;2023-07-20T05:15:15;100156.84;;;22.53
19061;BMP280;9663;48.996;8.334;2023-07-20T05:17:41;100165.94;;;22.60
19061;BMP280;9663;48.996;8.334;2023-07-20T05:20:07;100168.94;;;22.68
19061;BMP280;9663;48.996;8.334;2023-07-20T05:22:36;100165.03;;;22.76
19061;BMP280;9663;48.996;8.334;2023-07-20T05:25:09;100166.31;;;22.85
19061;BMP280;9663;48.996;8.334;2023-07-20T05:27:37;100158.97;;;22.93
19061;BMP280;9663;48.996;8.334;2023-07-20T05:30:04;100169.78;;;22.99
19061;BMP280;9663;48.996;8.334;2023-07-20T05:32:30;100169.31;;;23.08
19061;BMP280;9663;48.996;8.334;2023-07-20T05:34:56;100167.28;;;23.13
19061;BMP280;9663;48.996;8.334;2023-07-20T05:37:22;100165.38;;;23.17
19061;BMP280;9663;48.996;8.334;2023-07-20T05:39:48;100170.47;;;23.18
19061;BMP280;9663;48.996;8.334;2023-07-20T05:42:13;100164.19;;;23.22
19061;BMP280;9663;48.996;8.334;2023-07-20T05:44:40;100161.16;;;23.29
19061;BMP280;9663;48.996;8.334;2023-07-20T05:47:07;100159.72;;;23.39
19061;BMP280;9663;48.996;8.334;2023-07-20T05:49:34;100159.91;;;23.50
19061;BMP280;9663;48.996;8.334;2023-07-20T05:52:00;100161.91;;;23.60
19061;BMP280;9663;48.996;8.334;2023-07-20T05:54:27;100161.28;;;23.71
19061;BMP280;9663;48.996;8.334;2023-07-20T05:56:53;100168.50;;;23.80
19061;BMP280;9663;48.996;8.334;2023-07-20T05:59:19;100168.06;;;23.87
19061;BMP280;9663;48.996;8.334;2023-07-20T06:01:49;100170.31;;;23.93
19061;BMP280;9663;48.996;8.334;2023-07-20T06:04:15;100162.81;;;24.02
19061;BMP280;9663;48.996;8.334;2023-07-20T06:06:41;100169.00;;;24.14
19061;BMP280;9663;48.996;8.334;2023-07-20T06:09:07;100155.69;;;24.20
19061;BMP280;9663;48.996;8.334;2023-07-20T06:11:38;100165.69;;;24.26
19061;BMP280;9663;48.996;8.334;2023-07-20T06:14:04;100165.47;;;24.29
19061;BMP280;9663;48.996;8.334;2023-07-20T06:16:30;100160.97;;;24.32
19061;BMP280;9663;48.996;8.334;2023-07-20T06:18:56;100167.47;;;24.39
19061;BMP280;9663;48.996;8.334;2023-07-20T06:21:22;100172.25;;;24.45
19061;BMP280;9663;48.996;8.334;2023-07-20T06:23:48;100167.53;;;24.51
19061;BMP280;9663;48.996;8.334;2023-07-20T06:26:14;100171.53;;;24.57
19061;BMP280;9663;48.996;8.334;2023-07-20T06:28:39;100173.00;;;24.61
19061;BMP280;9663;48.996;8.334;2023-07-20T06:31:05;100172.72;;;24.65
19061;BMP280;9663;48.996;8.334;2023-07-20T06:33:31;100175.84;;;24.70
19061;BMP280;9663;48.996;8.334;2023-07-20T06:35:57;100172.75;;;24.78
19061;BMP280;9663;48.996;8.334;2023-07-20T06:38:23;100169.97;;;24.81
19061;BMP280;9663;48.996;8.334;2023-07-20T06:40:50;100176.63;;;24.85
19061;BMP280;9663;48.996;8.334;2023-07-20T06:43:16;100173.56;;;24.92
19061;BMP280;9663;48.996;8.334;2023-07-20T06:45:42;100174.03;;;24.98
19061;BMP280;9663;48.996;8.334;2023-07-20T06:48:09;100171.16;;;25.03
19061;BMP280;9663;48.996;8.334;2023-07-20T06:50:35;100173.16;;;25.12
19061;BMP280;9663;48.996;8.334;2023-07-20T06:53:00;100172.00;;;25.16
19061;BMP280;9663;48.996;8.334;2023-07-20T06:55:28;100173.31;;;25.23
19061;BMP280;9663;48.996;8.334;2023-07-20T06:57:54;100171.34;;;25.26
19061;BMP280;9663;48.996;8.334;2023-07-20T07:00:20;100175.28;;;25.32
19061;BMP280;9663;48.996;8.334;2023-07-20T07:02:45;100174.38;;;25.33
19061;BMP280;9663;48.996;8.334;2023-07-20T07:05:11;100181.72;;;25.38
19061;BMP280;9663;48.996;8.334;2023-07-20T07:07:39;100178.56;;;25.47
19061;BMP280;9663;48.996;8.334;2023-07-20T07:10:05;100164.03;;;25.57
19061;BMP280;9663;48.996;8.334;2023-07-20T07:12:31;100164.16;;;25.68
19061;BMP280;9663;48.996;8.334;2023-07-20T07:14:57;100166.97;;;25.77
19061;BMP280;9663;48.996;8.334;2023-07-20T07:17:24;100170.94;;;25.83
19061;BMP280;9663;48.996;8.334;2023-07-20T07:19:51;100157.75;;;25.86
19061;BMP280;9663;48.996;8.334;2023-07-20T07:22:19;100158.50;;;25.88
19061;BMP280;9663;48.996;8.334;2023-07-20T07:24:44;100159.72;;;25.95
19061;BMP280;9663;48.996;8.334;2023-07-20T07:27:10;100163.56;;;26.02
19061;BMP280;9663;48.996;8.334;2023-07-20T07:29:36;100165.75;;;26.08
19061;BMP280;9663;48.996;8.334;2023-07-20T07:32:02;100156.81;;;26.12
19061;BMP280;9663;48.996;8.334;2023-07-20T07:34:29;100160.75;;;26.17
19061;BMP280;9663;48.996;8.334;2023-07-20T07:36:54;100164.81;;;26.21
19061;BMP280;9663;48.996;8.334;2023-07-20T07:39:20;100160.44;;;26.21
19061;BMP280;9663;48.996;8.334;2023-07-20T07:41:46;100167.19;;;26.24
19061;BMP280;9663;48.996;8.334;2023-07-20T07:44:11;100159.09;;;26.28
19061;BMP280;9663;48.996;8.334;2023-07-20T07:46:37;100159.50;;;26.35
19061;BMP280;9663;48.996;8.334;2023-07-20T07:49:03;100157.63;;;26.49
19061;BMP280;9663;48.996;8.334;2023-07-20T07:51:29;100159.94;;;26.64
19061;BMP280;9663;48.996;8.334;2023-07-20T07:53:55;100164.81;;;26.81
19061;BMP280;9663;48.996;8.334;2023-07-20T07:56:20;100161.84;;;26.98
19061;BMP280;9663;48.996;8.334;2023-07-20T07:58:50;100166.75;;;27.13
19061;BMP280;9663;48.996;8.334;2023-07-20T08:01:17;100166.81;;;27.24
19061;BMP280;9663;48.996;8.334;2023-07-20T08:03:45;100168.53;;;27.36
19061;BMP280;9663;48.996;8.334;2023-07-20T08:06:13;100166.06;;;27.46
19061;BMP280;9663;48.996;8.334;2023-07-20T08:08:39;100158.94;;;27.60
19061;BMP280;9663;48.996;8.334;2023-07-20T08:11:05;100161.31;;;27.74
19061;BMP280;9663;48.996;8.334;2023-07-20T08:13:31;100162.88;;;27.87
19061;BMP280;9663;48.996;8.334;2023-07-20T08:15:57;100155.91;;;27.98
19061;BMP280;9663;48.996;8.334;2023-07-20T08:18:24;100160.94;;;28.12
19061;BMP280;9663;48.996;8.334;2023-07-20T08:20:50;100155.25;;;28.29
19061;BMP280;9663;48.996;8.334;2023-07-20T08:23:16;100159.16;;;28.45
19061;BMP280;9663;48.996;8.334;2023-07-20T08:25:42;100156.16;;;28.61
19061;BMP280;9663;48.996;8.334;2023-07-20T08:28:15;100153.69;;;28.70
19061;BMP280;9663;48.996;8.334;2023-07-20T08:30:48;100158.03;;;28.81
19061;BMP280;9663;48.996;8.334;2023-07-20T08:33:16;100160.75;;;28.90
19061;BMP280;9663;48.996;8.334;2023-07-20T08:35:43;100149.31;;;29.02
19061;BMP280;9663;48.996;8.334;2023-07-20T08:38:09;100153.41;;;29.15
19061;BMP280;9663;48.996;8.334;2023-07-20T08:40:46;100152.91;;;29.32
19061;BMP280;9663;48.996;8.334;2023-07-20T08:43:14;100152.22;;;29.50
19061;BMP280;9663;48.996;8.334;2023-07-20T08:45:44;100150.88;;;29.56
19061;BMP280;9663;48.996;8.334;2023-07-20T08:48:12;100148.06;;;29.48
19061;BMP280;9663;48.996;8.334;2023-07-20T08:50:38;100154.06;;;29.39
19061;BMP280;9663;48.996;8.334;2023-07-20T08:53:05;100156.34;;;29.32
19061;BMP280;9663;48.996;8.334;2023-07-20T08:55:31;100156.22;;;29.34
19061;BMP280;9663;48.996;8.334;2023-07-20T08:58:00;100160.59;;;29.33
19061;BMP280;9663;48.996;8.334;2023-07-20T09:00:26;100147.28;;;29.36
19061;BMP280;9663;48.996;8.334;2023-07-20T09:02:54;100162.34;;;29.44
19061;BMP280;9663;48.996;8.334;2023-07-20T09:05:23;100145.41;;;29.59
19061;BMP280;9663;48.996;8.334;2023-07-20T09:07:49;100151.84;;;29.75
19061;BMP280;9663;48.996;8.334;2023-07-20T09:10:15;100140.25;;;29.88
19061;BMP280;9663;48.996;8.334;2023-07-20T09:12:43;100139.31;;;29.99
19061;BMP280;9663;48.996;8.334;2023-07-20T09:15:10;100135.22;;;30.06
19061;BMP280;9663;48.996;8.334;2023-07-20T09:17:37;100142.03;;;30.17
19061;BMP280;9663;48.996;8.334;2023-07-20T09:20:08;100135.75;;;30.29
19061;BMP280;9663;48.996;8.334;2023-07-20T09:22:37;100130.16;;;30.43
19061;BMP280;9663;48.996;8.334;2023-07-20T09:25:15;100139.69;;;30.44
19061;BMP280;9663;48.996;8.334;2023-07-20T09:27:46;100130.75;;;30.47
19061;BMP280;9663;48.996;8.334;2023-07-20T09:30:15;100139.84;;;30.52
19061;BMP280;9663;48.996;8.334;2023-07-20T09:32:47;100137.63;;;30.48
19061;BMP280;9663;48.996;8.334;2023-07-20T09:35:14;100138.00;;;30.43
19061;BMP280;9663;48.996;8.334;2023-07-20T09:37:46;100139.94;;;30.41
19061;BMP280;9663;48.996;8.334;2023-07-20T09:40:15;100130.16;;;30.43
19061;BMP280;9663;48.996;8.334;2023-07-20T09:42:42;100130.47;;;30.50
19061;BMP280;9663;48.996;8.334;2023-07-20T09:45:09;100132.72;;;30.63
19061;BMP280;9663;48.996;8.334;2023-07-20T09:47:38;100131.50;;;30.77
19061;BMP280;9663;48.996;8.334;2023-07-20T09:50:06;100124.66;;;30.95
19061;BMP280;9663;48.996;8.334;2023-07-20T09:52:38;100127.97;;;31.06
19061;BMP280;9663;48.996;8.334;2023-07-20T09:55:07;100128.53;;;31.09
19061;BMP280;9663;48.996;8.334;2023-07-20T09:57:34;100123.56;;;31.06
19061;BMP280;9663;48.996;8.334;2023-07-20T10:00:07;100129.75;;;31.15
19061;BMP280;9663;48.996;8.334;2023-07-20T10:02:45;100112.19;;;31.72
19061;BMP280;9663;48.996;8.334;2023-07-20T10:05:15;100107.56;;;31.47
19061;BMP280;9663;48.996;8.334;2023-07-20T10:07:48;100123.56;;;31.44
19061;BMP280;9663;48.996;8.334;2023-07-20T10:10:17;100111.00;;;31.47
19061;BMP280;9663;48.996;8.334;2023-07-20T10:12:48;100109.91;;;31.50
19061;BMP280;9663;48.996;8.334;2023-07-20T10:15:29;100108.25;;;31.49
19061;BMP280;9663;48.996;8.334;2023-07-20T10:18:15;100108.91;;;31.60
19061;BMP280;9663;48.996;8.334;2023-07-20T10:20:46;100106.88;;;32.00
19061;BMP280;9663;48.996;8.334;2023-07-20T10:23:12;100105.81;;;31.93
19061;BMP280;9663;48.996;8.334;2023-07-20T10:25:40;100100.50;;;31.57
19061;BMP280;9663;48.996;8.334;2023-07-20T10:28:08;100088.94;;;31.95
19061;BMP280;9663;48.996;8.334;2023-07-20T10:30:36;100090.84;;;31.57
19061;BMP280;9663;48.996;8.334;2023-07-20T10:33:04;100095.00;;;31.50
19061;BMP280;9663;48.996;8.334;2023-07-20T10:35:50;100083.84;;;31.48
19061;BMP280;9663;48.996;8.334;2023-07-20T10:38:16;100077.84;;;31.65
19061;BMP280;9663;48.996;8.334;2023-07-20T10:40:42;100078.09;;;31.81
19061;BMP280;9663;48.996;8.334;2023-07-20T10:43:09;100070.16;;;32.00
19061;BMP280;9663;48.996;8.334;2023-07-20T10:45:52;100064.97;;;32.61
19061;BMP280;9663;48.996;8.334;2023-07-20T10:48:24;100060.75;;;32.95
19061;BMP280;9663;48.996;8.334;2023-07-20T10:51:13;100068.59;;;32.77
19061;BMP280;9663;48.996;8.334;2023-07-20T10:53:40;100068.81;;;32.49
19061;BMP280;9663;48.996;8.334;2023-07-20T10:56:08;100068.28;;;32.46
19061;BMP280;9663;48.996;8.334;2023-07-20T10:58:36;100068.94;;;32.48
19061;BMP280;9663;48.996;8.334;2023-07-20T11:01:04;100055.97;;;32.46
19061;BMP280;9663;48.996;8.334;2023-07-20T11:03:38;100064.47;;;32.40
19061;BMP280;9663;48.996;8.334;2023-07-20T11:11:34;100055.78;;;32.40
19061;BMP280;9663;48.996;8.334;2023-07-20T11:14:22;100052.53;;;32.46
19061;BMP280;9663;48.996;8.334;2023-07-20T11:16:49;100050.91;;;32.62
19061;BMP280;9663;48.996;8.334;2023-07-20T11:19:26;100046.03;;;32.67
19061;BMP280;9663;48.996;8.334;2023-07-20T11:21:56;100037.78;;;32.79
19061;BMP280;9663;48.996;8.334;2023-07-20T11:24:23;100047.25;;;32.90
19061;BMP280;9663;48.996;8.334;2023-07-20T11:26:52;100030.75;;;32.97
19061;BMP280;9663;48.996;8.334;2023-07-20T11:29:23;100023.06;;;33.04
19061;BMP280;9663;48.996;8.334;2023-07-20T11:31:50;100026.59;;;33.37
19061;BMP280;9663;48.996;8.334;2023-07-20T11:34:19;100013.91;;;34.32
19061;BMP280;9663;48.996;8.334;2023-07-20T11:36:49;100020.09;;;35.43
19061;BMP280;9663;48.996;8.334;2023-07-20T11:39:18;100008.63;;;36.43
19061;BMP280;9663;48.996;8.334;2023-07-20T11:41:54;100002.28;;;37.33
19061;BMP280;9663;48.996;8.334;2023-07-20T11:44:22;100001.56;;;37.96
19061;BMP280;9663;48.996;8.334;2023-07-20T11:47:11;99992.31;;;38.77
19061;BMP280;9663;48.996;8.334;2023-07-20T11:52:11;99993.50;;;40.23
19061;BMP280;9663;48.996;8.334;2023-07-20T11:54:41;99986.03;;;40.84
19061;BMP280;9663;48.996;8.334;2023-07-20T11:57:16;99976.41;;;41.22
19061;BMP280;9663;48.996;8.334;2023-07-20T11:59:54;99980.69;;;40.71
19061;BMP280;9663;48.996;8.334;2023-07-20T12:02:23;99988.19;;;39.83
19061;BMP280;9663;48.996;8.334;2023-07-20T12:04:51;99978.50;;;39.63
19061;BMP280;9663;48.996;8.334;2023-07-20T12:07:18;99975.41;;;39.99
19061;BMP280;9663;48.996;8.334;2023-07-20T12:10:02;99960.25;;;40.66
19061;BMP280;9663;48.996;8.334;2023-07-20T12:12:28;99963.94;;;40.71
19061;BMP280;9663;48.996;8.334;2023-07-20T12:15:32;99967.34;;;39.80
19061;BMP280;9663;48.996;8.334;2023-07-20T12:18:02;99969.75;;;40.09
19061;BMP280;9663;48.996;8.334;2023-07-20T12:20:36;99968.00;;;40.67
19061;BMP280;9663;48.996;8.334;2023-07-20T12:23:09;99960.66;;;41.33
19061;BMP280;9663;48.996;8.334;2023-07-20T12:25:40;99968.38;;;42.10
19061;BMP280;9663;48.996;8.334;2023-07-20T12:28:22;99958.16;;;42.93
19061;BMP280;9663;48.996;8.334;2023-07-20T12:30:48;99961.66;;;43.11
19061;BMP280;9663;48.996;8.334;2023-07-20T12:33:21;99948.28;;;43.18
19061;BMP280;9663;48.996;8.334;2023-07-20T12:35:49;99948.03;;;43.43
19061;BMP280;9663;48.996;8.334;2023-07-20T12:38:15;99940.72;;;43.86
19061;BMP280;9663;48.996;8.334;2023-07-20T12:40:42;99938.00;;;44.22
19061;BMP280;9663;48.996;8.334;2023-07-20T12:43:08;99931.59;;;44.63
19061;BMP280;9663;48.996;8.334;2023-07-20T12:45:34;99932.00;;;45.12
19061;BMP280;9663;48.996;8.334;2023-07-20T12:47:59;99938.34;;;45.57
19061;BMP280;9663;48.996;8.334;2023-07-20T12:50:27;99931.47;;;45.88
19061;BMP280;9663;48.996;8.334;2023-07-20T12:52:53;99933.78;;;45.96
19061;BMP280;9663;48.996;8.334;2023-07-20T12:55:18;99924.03;;;45.90
19061;BMP280;9663;48.996;8.334;2023-07-20T12:57:46;99926.31;;;45.70
19061;BMP280;9663;48.996;8.334;2023-07-20T13:00:15;99926.75;;;45.79
19061;BMP280;9663;48.996;8.334;2023-07-20T13:02:41;99913.41;;;45.95
19061;BMP280;9663;48.996;8.334;2023-07-20T13:05:09;99920.25;;;46.03
19061;BMP280;9663;48.996;8.334;2023-07-20T13:07:37;99926.69;;;45.62
19061;BMP280;9663;48.996;8.334;2023-07-20T13:10:05;99919.41;;;45.24
19061;BMP280;9663;48.996;8.334;2023-07-20T13:12:33;99913.34;;;45.06
19061;BMP280;9663;48.996;8.334;2023-07-20T13:15:02;99908.25;;;44.93
19061;BMP280;9663;48.996;8.334;2023-07-20T13:17:35;99915.53;;;44.63
19061;BMP280;9663;48.996;8.334;2023-07-20T13:20:03;99910.88;;;44.59
19061;BMP280;9663;48.996;8.334;2023-07-20T13:22:30;99918.69;;;44.71
19061;BMP280;9663;48.996;8.334;2023-07-20T13:24:56;99911.59;;;44.54
19061;BMP280;9663;48.996;8.334;2023-07-20T13:27:22;99916.94;;;44.14
19061;BMP280;9663;48.996;8.334;2023-07-20T13:29:47;99907.03;;;43.85
19061;BMP280;9663;48.996;8.334;2023-07-20T13:32:15;99915.94;;;43.68
19061;BMP280;9663;48.996;8.334;2023-07-20T13:34:41;99909.78;;;43.67
19061;BMP280;9663;48.996;8.334;2023-07-20T13:37:08;99902.09;;;43.88
19061;BMP280;9663;48.996;8.334;2023-07-20T13:39:33;99897.06;;;44.21
19061;BMP280;9663;48.996;8.334;2023-07-20T13:41:59;99909.03;;;44.48
19061;BMP280;9663;48.996;8.334;2023-07-20T13:44:27;99892.31;;;44.75
19061;BMP280;9663;48.996;8.334;2023-07-20T13:46:52;99887.38;;;45.29
19061;BMP280;9663;48.996;8.334;2023-07-20T13:49:18;99889.28;;;45.67
19061;BMP280;9663;48.996;8.334;2023-07-20T13:51:44;99892.19;;;45.66
19061;BMP280;9663;48.996;8.334;2023-07-20T13:54:11;99880.47;;;44.94
19061;BMP280;9663;48.996;8.334;2023-07-20T13:56:37;99882.28;;;43.78
19061;BMP280;9663;48.996;8.334;2023-07-20T13:59:03;99887.94;;;42.75
19061;BMP280;9663;48.996;8.334;2023-07-20T14:01:29;99886.66;;;41.98
19061;BMP280;9663;48.996;8.334;2023-07-20T14:03:56;99878.94;;;41.40
19061;BMP280;9663;48.996;8.334;2023-07-20T14:06:22;99878.03;;;40.90
19061;BMP280;9663;48.996;8.334;2023-07-20T14:08:47;99886.81;;;40.32
19061;BMP280;9663;48.996;8.334;2023-07-20T14:11:14;99885.69;;;39.88
19061;BMP280;9663;48.996;8.334;2023-07-20T14:13:40;99881.88;;;39.51
19061;BMP280;9663;48.996;8.334;2023-07-20T14:16:06;99883.94;;;39.15
19061;BMP280;9663;48.996;8.334;2023-07-20T14:18:31;99882.53;;;38.86
19061;BMP280;9663;48.996;8.334;2023-07-20T14:20:57;99874.84;;;38.70
19061;BMP280;9663;48.996;8.334;2023-07-20T14:23:23;99875.53;;;38.57
19061;BMP280;9663;48.996;8.334;2023-07-20T14:25:49;99877.50;;;38.49
19061;BMP280;9663;48.996;8.334;2023-07-20T14:28:14;99872.28;;;38.55
19061;BMP280;9663;48.996;8.334;2023-07-20T14:30:41;99863.25;;;38.77